This is the latest recevied weather packets stored in our database for station/object HS1AXC-1. If no packets are shown the sender has not sent any weather packets the latest 10 day(s).
| Time | Temp. | Humidity | Pressure | Rain* | Wind** | Luminosity | Snow |
|---|---|---|---|---|---|---|---|
| 1777367000 | 38.33° C | 49% | 1005 hPa | - | - | 1 W/m² | - |
| 1777366378 | 38.33° C | 49% | 1005 hPa | - | - | 1 W/m² | - |
| 1777365910 | 37.78° C | 50% | 1005 hPa | - | - | 1 W/m² | - |
| 1777365288 | 38.89° C | 48% | 1005 hPa | - | - | 1 W/m² | - |
| 1777364666 | 38.89° C | 48% | 1006 hPa | - | - | 1 W/m² | - |
| 1777364044 | 38.89° C | 49% | 1006 hPa | - | - | 1 W/m² | - |
| 1777363422 | 38.33° C | 51% | 1006 hPa | - | - | 1 W/m² | - |
| 1777362800 | 38.33° C | 51% | 1006 hPa | - | - | 2 W/m² | - |
| 1777362178 | 39.44° C | 49% | 1006 hPa | - | - | 2 W/m² | - |
| 1777361556 | 38.33° C | 52% | 1006 hPa | - | - | 2 W/m² | - |
| 1777360934 | 38.89° C | 51% | 1006 hPa | - | - | 2 W/m² | - |
| 1777360312 | 39.44° C | 50% | 1006 hPa | - | - | 2 W/m² | - |
| 1777359690 | 39.44° C | 50% | 1006 hPa | - | - | 3 W/m² | - |
| 1777359068 | 38.89° C | 50% | 1006 hPa | - | - | 3 W/m² | - |
| 1777358445 | 38.89° C | 51% | 1006 hPa | - | - | 3 W/m² | - |
| 1777357823 | 38.33° C | 52% | 1007 hPa | - | - | 1 W/m² | - |
| 1777357201 | 38.89° C | 51% | 1007 hPa | - | - | 3 W/m² | - |
| 1777356579 | 38.89° C | 51% | 1007 hPa | - | - | 3 W/m² | - |
| 1777355957 | 38.89° C | 52% | 1007 hPa | - | - | 1 W/m² | - |
| 1777355335 | 39.44° C | 51% | 1007 hPa | - | - | 3 W/m² | - |
| 1777354713 | 38.33° C | 52% | 1008 hPa | - | - | 3 W/m² | - |
| 1777353945 | 38.89° C | 51% | 1008 hPa | - | - | 2 W/m² | - |
| 1777353323 | 38.89° C | 52% | 1008 hPa | - | - | 3 W/m² | - |
| 1777352701 | 37.78° C | 53% | 1009 hPa | - | - | 1 W/m² | - |
| 1777352062 | 38.89° C | 51% | 1009 hPa | - | - | 2 W/m² | - |
* Rain since midnight (hover to see other rain measurements)
** Current wind speed in m/s (hover to see current wind gust speed)